Latest Weather Observations for Coonabarabran Airport

IDN60801

Issued at 3:32 am EST Thursday 27 April 2017 (issued every 30 minutes, with the page automatically refreshed every 10 minutes)

About weather observations | Map of weather stations | Latest weather observations for NSW | Other Formats
Station Details ID: 064017 Name: COONABARABRAN AIRPORT AWS Lat: -31.33 Lon: 149.27 Height: 645.0 m
Data from the previous 72 hours. | See also: Recent months at Coonabarabran Airport
Date/Time
EST
Temp
°C
App
Temp
°C
Dew
Point
°C
Rel
Hum
%
Delta-T
°C
Wind Press
QNH
hPa
Press
MSL
hPa
Rain since
9am
mm
Dir  Spd
km/h
Gust
km/h
Spd
kts
Gust
kts
27/03:30am 5.3 1.0 3.3 87 0.9 SW 15 22 8 12 1014.7 1012.5 0.6
27/03:00am 5.7 0.5 3.5 86 1.0 SW 20 28 11 15 1014.4 1012.2 0.6
27/02:30am 6.1 1.0 3.9 86 1.0 SW 20 30 11 16 1014.5 1012.3 0.6
27/02:00am 6.5 1.1 4.5 87 0.9 SW 22 32 12 17 1014.5 1012.3 0.6
27/01:30am 6.6 0.9 4.9 89 0.8 SW 24 37 13 20 1014.7 1012.5 0.6
27/01:00am 6.8 0.7 5.0 88 0.8 SW 26 39 14 21 1014.8 1012.6 0.6
27/12:30am 7.5 1.1 5.1 85 1.1 SW 28 43 15 23 1014.9 1012.8 0.6
27/12:00am 7.9 1.2 5.4 84 1.2 SW 30 41 16 22 1015.1 1013.0 0.6
 
Date/Time
EST
Temp
°C
App
Temp
°C
Dew
Point
°C
Rel
Hum
%
Delta-T
°C
Wind Press
QNH
hPa
Press
MSL
hPa
Rain since
9am
mm
Dir  Spd
km/h
Gust
km/h
Spd
kts
Gust
kts
26/11:30pm 7.8 2.2 5.3 84 1.2 SW 24 39 13 21 1015.1 1013.0 0.6
26/11:00pm 7.9 1.9 5.4 84 1.2 SW 26 39 14 21 1015.2 1013.1 0.6
26/10:30pm 8.0 2.5 5.8 86 1.0 SW 24 37 13 20 1015.2 1013.1 0.6
26/10:00pm 7.9 2.3 5.5 85 1.1 SW 24 32 13 17 1015.3 1013.2 0.6
26/09:30pm 8.0 2.4 5.3 83 1.3 SW 24 33 13 18 1015.5 1013.4 0.6
26/09:00pm 8.1 2.5 5.4 83 1.3 WSW 24 35 13 19 1015.4 1013.3 0.6
26/08:30pm 8.0 2.3 5.1 82 1.3 WSW 24 39 13 21 1015.1 1013.0 0.6
26/08:00pm 8.2 2.5 5.1 81 1.4 WSW 24 35 13 19 1014.9 1012.8 0.6
26/07:30pm 8.0 3.4 5.6 85 1.1 WSW 19 28 10 15 1014.4 1012.2 0.6
26/07:00pm 8.2 3.5 6.0 86 1.0 SW 20 30 11 16 1013.9 1011.8 0.6
26/06:30pm 8.7 3.2 6.0 83 1.3 WSW 24 39 13 21 1013.3 1011.1 0.6
26/06:00pm 8.0 3.4 5.6 85 1.1 WSW 19 30 10 16 1012.6 1010.4 0.6
26/05:30pm 7.7 3.9 5.7 87 0.9 WSW 15 24 8 13 1012.0 1009.8 0.4
26/05:00pm 7.8 4.0 5.8 87 0.9 WSW 15 24 8 13 1012.0 1009.8 0.4
26/04:30pm 7.8 3.6 5.9 88 0.9 SW 17 26 9 14 1012.0 1009.8 0.4
26/04:00pm 7.7 1.8 5.8 88 0.9 SW 26 39 14 21 1012.1 1010.0 0.2
26/03:30pm 8.3 1.4 6.6 89 0.8 SW 32 56 17 30 1011.7 1009.5 0.0
26/03:16pm 8.5 1.5 7.0 90 0.7 SW 33 52 18 28 1011.3 1009.1 0.0
26/03:00pm 9.3 2.5 6.7 84 1.3 SW 32 50 17 27 1011.1 1008.9 0.0
26/02:53pm 9.4 2.5 7.2 86 1.1 SW 33 50 18 27 1010.7 1008.6 0.0
26/02:30pm 12.8 4.5 6.2 64 3.2 WSW 39 74 21 40 1009.5 1007.3 0.0
26/02:28pm 14.8 7.3 6.1 56 4.3 W 35 74 19 40 1009.1 1006.9 0.0
26/02:11pm 15.6 9.3 5.5 51 5.0 W 28 46 15 25 1008.6 1006.4 0.0
26/02:00pm 15.7 8.4 5.3 50 5.1 W 33 46 18 25 1008.4 1006.2 0.0
26/01:30pm 16.3 8.3 5.9 50 5.2 W 37 56 20 30 1008.5 1006.3 0.0
26/01:26pm 17.1 9.8 5.4 46 5.8 W 33 56 18 30 1008.5 1006.3 0.0
26/01:00pm 16.6 11.6 8.1 57 4.5 W 24 35 13 19 1008.8 1006.6 0.0
26/12:32pm 16.9 9.9 8.3 57 4.5 W 35 54 19 29 1009.0 1006.8 0.0
26/12:30pm 17.1 9.5 7.7 54 4.9 W 37 54 20 29 1008.9 1006.7 0.0
26/12:20pm 16.3 10.3 7.0 54 4.8 W 28 46 15 25 1009.3 1007.0 0.0
26/12:00pm 16.7 11.7 8.1 57 4.5 W 24 33 13 18 1009.7 1007.5 0.0
26/11:30am 16.6 11.7 9.8 64 3.7 WSW 26 37 14 20 1010.2 1008.0 0.0
26/11:00am 17.0 12.5 9.9 63 3.9 WSW 24 33 13 18 1010.6 1008.4 0.0
26/10:30am 16.6 11.5 10.5 67 3.3 WSW 28 35 15 19 1010.7 1008.6 0.0
26/10:00am 16.3 12.5 11.0 71 2.9 W 22 32 12 17 1011.0 1008.8 0.0
26/09:30am 15.0 11.3 11.6 80 1.9 SW 22 32 12 17 1011.2 1009.0 0.0
26/09:00am 16.2 13.9 12.9 81 1.9 WNW 17 20 9 11 1011.4 1009.2 4.8
26/08:30am 15.8 13.8 12.7 82 1.8 WNW 15 20 8 11 1011.4 1009.2 4.8
26/08:00am 16.0 14.8 14.0 88 1.2 WNW 13 19 7 10 1011.5 1009.3 4.8
26/07:30am 14.5 13.5 13.5 94 0.6 NW 11 13 6 7 1011.4 1009.2 4.8
26/07:00am 14.2 13.2 13.4 95 0.5 NW 11 15 6 8 1011.2 1009.0 4.8
26/06:30am 14.2 12.9 13.7 97 0.3 NW 13 15 7 8 1011.3 1009.1 4.8
26/06:00am 14.2 12.4 13.4 95 0.5 NW 15 19 8 10 1011.4 1009.2 4.6
26/05:30am 14.1 11.9 13.3 95 0.5 NW 17 20 9 11 1011.1 1008.9 4.6
26/05:00am 14.2 12.7 13.2 94 0.6 NW 13 17 7 9 1010.9 1008.7 4.6
26/04:30am 14.6 13.1 14.1 97 0.3 NW 15 19 8 10 1011.3 1009.1 4.6
26/04:00am 14.7 13.3 14.4 98 0.2 NW 15 17 8 9 1011.4 1009.2 4.6
26/03:30am 14.9 13.9 14.6 98 0.2 NW 13 17 7 9 1011.6 1009.4 4.6
26/03:00am 15.0 13.7 14.8 99 0.1 NW 15 17 8 9 1011.8 1009.6 4.6
26/02:30am 15.0 14.5 14.8 99 0.1 NNW 11 15 6 8 1011.9 1009.7 4.4
26/02:00am 14.9 13.9 14.7 99 0.1 NNW 13 17 7 9 1012.1 1010.0 4.2
26/01:30am 15.0 14.1 14.8 99 0.1 NNW 13 19 7 10 1012.4 1010.3 4.2
26/01:00am 14.9 13.9 14.7 99 0.1 NNW 13 15 7 8 1012.3 1010.2 4.0
26/12:30am 14.9 13.2 14.7 99 0.1 NNW 17 24 9 13 1012.8 1010.6 4.0
26/12:00am 14.9 13.2 14.6 98 0.2 NNW 17 28 9 15 1012.9 1010.7 3.8
 
Date/Time
EST
Temp
°C
App
Temp
°C
Dew
Point
°C
Rel
Hum
%
Delta-T
°C
Wind Press
QNH
hPa
Press
MSL
hPa
Rain since
9am
mm
Dir  Spd
km/h
Gust
km/h
Spd
kts
Gust
kts
25/11:30pm 15.0 12.8 14.5 97 0.3 NNW 19 26 10 14 1013.2 1011.0 3.8
25/11:00pm 15.0 12.3 14.7 98 0.2 NNW 22 32 12 17 1013.4 1011.2 3.4
25/10:30pm 14.9 12.6 14.7 99 0.1 NW 20 32 11 17 1013.6 1011.5 3.2
25/10:00pm 14.8 12.5 14.6 99 0.1 NNW 20 32 11 17 1013.5 1011.4 3.2
25/09:30pm 14.7 12.3 14.5 99 0.1 NNW 20 30 11 16 1013.7 1011.6 3.2
25/09:00pm 14.4 12.5 14.1 98 0.2 NNW 17 22 9 12 1013.7 1011.6 3.2
25/08:30pm 14.3 12.3 14.0 98 0.2 NNW 17 24 9 13 1013.8 1011.7 3.2
25/08:00pm 14.4 13.2 14.1 98 0.2 NNW 13 17 7 9 1013.7 1011.6 3.2
25/07:30pm 14.7 13.6 14.4 98 0.2 N 13 19 7 10 1013.3 1011.1 3.2
25/07:00pm 14.6 13.1 14.1 97 0.3 N 15 19 8 10 1013.2 1011.0 3.2
25/06:30pm 14.9 13.8 14.3 96 0.4 NNW 13 20 7 11 1013.1 1010.9 3.2
25/06:00pm 15.1 14.1 14.5 96 0.4 N 13 19 7 10 1012.8 1010.6 3.2
25/05:30pm 15.4 15.2 14.8 96 0.4 NW 9 13 5 7 1013.3 1011.1 3.2
25/05:00pm 15.7 14.9 15.1 96 0.4 NNW 13 19 7 10 1013.3 1011.1 3.0
25/04:30pm 15.8 15.0 15.0 95 0.5 NNW 13 17 7 9 1013.5 1011.4 2.8
25/04:00pm 16.1 15.2 14.8 92 0.8 NNW 13 17 7 9 1013.7 1011.6 2.0
25/03:30pm 16.7 15.9 15.1 90 1.0 WNW 13 19 7 10 1013.9 1011.8 1.2
25/03:00pm 17.1 14.3 14.4 84 1.6 WNW 22 28 12 15 1013.9 1011.8 0.8
25/02:30pm 18.6 17.1 14.3 76 2.6 NW 15 20 8 11 1013.6 1011.5 0.2
25/02:00pm 18.5 16.3 14.4 77 2.4 NW 19 26 10 14 1013.9 1011.8 0.2
25/01:30pm 18.2 15.9 14.7 80 2.1 NW 20 30 11 16 1014.5 1012.3 0.2
25/01:00pm 20.6 16.0 12.3 59 4.8 NW 28 39 15 21 1014.6 1012.4 0.0
25/12:30pm 21.5 19.3 13.2 59 4.9 NNW 17 26 9 14 1014.6 1012.4 0.0
25/12:00pm 21.1 16.6 12.5 58 5.0 NNW 28 35 15 19 1015.1 1013.0 0.0
25/11:30am 21.5 16.9 12.4 56 5.3 N 28 43 15 23 1015.6 1013.5 0.0
25/11:00am 20.4 15.3 11.9 58 4.9 N 30 41 16 22 1016.3 1014.2 0.0
25/10:30am 19.7 15.0 12.0 61 4.4 NNW 28 41 15 22 1016.7 1014.6 0.0
25/10:10am 20.0 15.4 12.3 61 4.4 N 28 46 15 25 1016.8 1014.7 0.0
25/10:00am 19.8 15.0 11.8 60 4.6 N 28 43 15 23 1016.9 1014.8 0.0
25/09:30am 18.8 14.1 11.9 64 3.9 NNW 28 41 15 22 1017.6 1015.5 0.0
25/09:00am 17.9 12.6 11.2 65 3.7 NNW 30 44 16 24 1017.7 1015.6 0.0
25/08:30am 17.7 13.2 11.3 66 3.6 N 26 37 14 20 1017.9 1015.8 0.0
25/08:00am 16.9 12.7 11.0 68 3.3 N 24 32 13 17 1018.1 1016.0 0.0
25/07:30am 16.1 12.1 10.4 69 3.1 N 22 32 12 17 1017.7 1015.6 0.0
25/07:00am 16.1 12.0 10.2 68 3.2 NNW 22 30 12 16 1017.6 1015.5 0.0
25/06:30am 16.0 11.8 9.9 67 3.3 N 22 30 12 16 1017.5 1015.3 0.0
25/06:00am 16.1 12.5 10.0 67 3.3 N 19 26 10 14 1017.2 1015.1 0.0
25/05:30am 16.1 12.9 9.8 66 3.4 N 17 24 9 13 1017.2 1015.1 0.0
25/05:00am 15.8 12.5 9.7 67 3.3 N 17 24 9 13 1017.1 1015.0 0.0
25/04:30am 15.9 13.0 9.8 67 3.3 N 15 20 8 11 1017.0 1014.9 0.0
25/04:00am 16.4 13.2 9.8 65 3.6 N 17 20 9 11 1017.1 1015.0 0.0
25/03:30am 16.2 14.2 10.1 67 3.3 N 11 15 6 8 1017.2 1015.1 0.0
25/03:00am 16.4 14.1 10.5 68 3.2 N 13 17 7 9 1017.6 1015.5 0.0
25/02:30am 16.9 14.6 10.3 65 3.6 NNE 13 19 7 10 1017.7 1015.6 0.0
25/02:00am 16.8 14.5 10.4 66 3.5 NNE 13 19 7 10 1017.8 1015.7 0.0
25/01:30am 16.5 15.7 11.0 70 3.0 N 6 13 3 7 1018.3 1016.2 0.0
25/01:00am 16.6 14.5 11.3 71 2.9 NNE 13 17 7 9 1018.6 1016.5 0.0
25/12:30am 16.8 14.7 11.3 70 3.1 NE 13 15 7 8 1018.9 1016.9 0.0
25/12:00am 16.2 15.0 11.6 74 2.6 ENE 9 13 5 7 1019.5 1017.4 0.0
 
Date/Time
EST
Temp
°C
App
Temp
°C
Dew
Point
°C
Rel
Hum
%
Delta-T
°C
Wind Press
QNH
hPa
Press
MSL
hPa
Rain since
9am
mm
Dir  Spd
km/h
Gust
km/h
Spd
kts
Gust
kts
24/11:30pm 16.2 14.6 11.6 74 2.6 NE 11 11 6 6 1019.6 1017.5 0.0
24/11:00pm 16.9 16.6 11.6 71 3.0 E 4 11 2 6 1019.9 1017.8 0.0
24/10:30pm 16.8 15.8 11.1 69 3.2 E 7 15 4 8 1020.1 1018.0 0.0
24/10:00pm 17.1 15.8 11.2 68 3.3 E 9 13 5 7 1020.3 1018.3 0.0
24/09:30pm 17.8 17.0 11.1 65 3.7 E 6 19 3 10 1020.4 1018.4 0.0
24/09:00pm 17.9 17.0 11.5 66 3.6 ESE 7 15 4 8 1020.5 1018.5 0.0
24/08:30pm 17.5 16.7 11.8 69 3.2 SSW 7 17 4 9 1020.5 1018.5 0.0
24/08:00pm 18.0 17.2 11.6 66 3.6 ENE 7 15 4 8 1020.4 1018.4 0.0
24/07:30pm 18.1 17.2 11.4 65 3.8 E 7 9 4 5 1020.3 1018.3 0.0
24/07:00pm 17.6 16.0 11.4 67 3.5 E 11 11 6 6 1020.2 1018.1 0.0
24/06:30pm 18.5 17.4 10.6 60 4.4 E 7 15 4 8 1020.1 1018.0 0.0
24/06:00pm 18.6 17.4 10.4 59 4.5 E 7 15 4 8 1019.9 1017.8 0.0
24/05:30pm 19.1 18.2 11.2 60 4.5 E 7 19 4 10 1019.7 1017.6 0.0
24/05:00pm 19.6 19.0 12.4 63 4.1 E 7 11 4 6 1019.5 1017.4 0.0
24/04:30pm 20.1 18.9 11.6 58 4.8 E 9 13 5 7 1019.5 1017.4 0.0
24/04:00pm 20.9 19.7 11.5 55 5.4 SE 9 13 5 7 1019.6 1017.5 0.0
24/03:30pm 20.8 19.9 10.6 52 5.7 SE 6 15 3 8 1019.8 1017.7 0.0
24/03:00pm 20.9 19.8 10.7 52 5.7 SW 7 15 4 8 1019.9 1017.8 0.0
24/02:30pm 20.7 19.4 11.1 54 5.4 N 9 15 5 8 1020.0 1017.9 0.0
24/02:00pm 20.6 19.4 11.5 56 5.2 NNW 9 13 5 7 1020.2 1018.1 0.0
24/01:30pm 20.6 19.0 11.5 56 5.2 NW 11 15 6 8 1020.5 1018.5 0.0
24/01:00pm 20.3 18.9 11.0 55 5.2 N 9 15 5 8 1020.9 1018.8 0.0
24/12:30pm 21.0 19.7 9.9 49 6.2 NNE 7 13 4 7 1021.3 1019.2 0.0
24/12:00pm 21.0 19.3 11.1 53 5.6 NNW 11 17 6 9 1021.8 1019.8 0.0
24/11:30am 20.9 18.5 10.1 50 6.0 N 13 20 7 11 1022.3 1020.3 0.0
24/11:00am 20.4 18.9 10.5 53 5.5 NNE 9 13 5 7 1022.9 1020.8 0.0
24/10:30am 19.9 19.0 10.6 55 5.2 ENE 6 17 3 9 1023.2 1021.2 0.0
24/10:00am 18.1 17.0 10.7 62 4.1 NNE 7 15 4 8 1023.3 1021.3 0.0
24/09:30am 17.3 16.5 11.8 70 3.1 N 7 15 4 8 1023.4 1021.4 0.0
24/09:00am 16.9 16.0 10.7 67 3.4 N 6 15 3 8 1023.5 1021.5 0.0
24/08:30am 17.0 15.1 10.4 65 3.6 NE 11 13 6 7 1023.4 1021.4 0.0
24/08:00am 16.3 13.9 9.9 66 3.5 NE 13 15 7 8 1023.2 1021.2 0.0
24/07:30am 15.4 13.0 10.0 70 2.9 NE 13 15 7 8 1023.0 1020.9 0.0
24/07:00am 15.0 12.5 9.6 70 2.9 NE 13 17 7 9 1022.8 1020.7 0.0
24/06:30am 14.1 12.8 9.1 72 2.6 ENE 6 15 3 8 1022.6 1020.5 0.0
24/06:00am 14.3 11.6 9.1 71 2.7 E 13 17 7 9 1022.1 1020.1 0.0
24/05:30am 14.7 12.8 9.1 69 3.0 E 9 15 5 8 1022.1 1020.1 0.0
24/05:00am 14.7 12.4 9.1 69 2.9 ENE 11 15 6 8 1022.0 1020.0 0.0
24/04:30am 14.8 13.3 9.0 68 3.1 SE 7 15 4 8 1021.9 1019.9 0.0
24/04:00am 15.0 12.3 9.1 68 3.1 ENE 13 17 7 9 1021.7 1019.7 0.0

Other Formats:

Comma delimited format used in spreadsheet applications
http://www.bom.gov.au/fwo/IDN60801/IDN60801.95728.axf

JavaScript Object Notation format (JSON) in row-major order
http://www.bom.gov.au/fwo/IDN60801/IDN60801.95728.json